sensor_id;sensor_type;location;lat;lon;timestamp;P1;durP1;ratioP1;P2;durP2;ratioP2
64915;SDS011;51427;-27.442;153.014;2023-03-21T00:00:40;5.25;;;1.00;;
64915;SDS011;51427;-27.442;153.014;2023-03-21T00:03:07;5.72;;;1.17;;
64915;SDS011;51427;-27.442;153.014;2023-03-21T00:05:44;6.07;;;1.52;;
64915;SDS011;51427;-27.442;153.014;2023-03-21T00:08:14;7.13;;;1.63;;
64915;SDS011;51427;-27.442;153.014;2023-03-21T00:10:42;6.20;;;1.20;;
64915;SDS011;51427;-27.442;153.014;2023-03-21T00:13:10;5.30;;;1.10;;
64915;SDS011;51427;-27.442;153.014;2023-03-21T00:15:38;9.43;;;1.67;;
64915;SDS011;51427;-27.442;153.014;2023-03-21T00:18:15;4.68;;;1.13;;
64915;SDS011;51427;-27.442;153.014;2023-03-21T00:20:42;8.70;;;1.10;;
64915;SDS011;51427;-27.442;153.014;2023-03-21T00:23:12;3.88;;;1.40;;
64915;SDS011;51427;-27.442;153.014;2023-03-21T00:25:39;6.03;;;1.25;;
64915;SDS011;51427;-27.442;153.014;2023-03-21T00:28:06;4.95;;;1.50;;
64915;SDS011;51427;-27.442;153.014;2023-03-21T00:30:33;4.10;;;0.95;;
64915;SDS011;51427;-27.442;153.014;2023-03-21T00:33:00;5.00;;;1.50;;
64915;SDS011;51427;-27.442;153.014;2023-03-21T00:35:28;7.13;;;1.13;;
64915;SDS011;51427;-27.442;153.014;2023-03-21T00:37:55;3.90;;;1.13;;
64915;SDS011;51427;-27.442;153.014;2023-03-21T00:40:22;9.25;;;1.30;;
64915;SDS011;51427;-27.442;153.014;2023-03-21T00:42:49;5.03;;;1.33;;
64915;SDS011;51427;-27.442;153.014;2023-03-21T00:45:17;8.82;;;1.45;;
64915;SDS011;51427;-27.442;153.014;2023-03-21T00:47:46;3.03;;;1.10;;
64915;SDS011;51427;-27.442;153.014;2023-03-21T00:50:14;5.03;;;1.35;;
64915;SDS011;51427;-27.442;153.014;2023-03-21T00:52:43;5.18;;;1.10;;
64915;SDS011;51427;-27.442;153.014;2023-03-21T00:55:15;6.90;;;1.35;;
64915;SDS011;51427;-27.442;153.014;2023-03-21T00:57:43;6.32;;;1.17;;
64915;SDS011;51427;-27.442;153.014;2023-03-21T01:00:11;2.70;;;1.10;;
64915;SDS011;51427;-27.442;153.014;2023-03-21T01:02:40;5.90;;;1.15;;
64915;SDS011;51427;-27.442;153.014;2023-03-21T01:05:27;4.32;;;1.10;;
64915;SDS011;51427;-27.442;153.014;2023-03-21T01:08:14;8.23;;;1.20;;
64915;SDS011;51427;-27.442;153.014;2023-03-21T01:10:44;6.47;;;1.25;;
64915;SDS011;51427;-27.442;153.014;2023-03-21T01:13:14;7.57;;;0.98;;
64915;SDS011;51427;-27.442;153.014;2023-03-21T01:15:43;9.77;;;1.35;;
64915;SDS011;51427;-27.442;153.014;2023-03-21T01:18:13;3.97;;;1.00;;
64915;SDS011;51427;-27.442;153.014;2023-03-21T01:20:41;10.02;;;1.38;;
64915;SDS011;51427;-27.442;153.014;2023-03-21T01:23:10;5.97;;;1.00;;
64915;SDS011;51427;-27.442;153.014;2023-03-21T01:25:39;10.68;;;1.60;;
64915;SDS011;51427;-27.442;153.014;2023-03-21T01:28:07;3.70;;;0.80;;
64915;SDS011;51427;-27.442;153.014;2023-03-21T01:30:35;4.00;;;0.93;;
64915;SDS011;51427;-27.442;153.014;2023-03-21T01:33:03;6.88;;;1.35;;
64915;SDS011;51427;-27.442;153.014;2023-03-21T01:35:30;4.57;;;1.45;;
64915;SDS011;51427;-27.442;153.014;2023-03-21T01:37:58;4.22;;;1.20;;
64915;SDS011;51427;-27.442;153.014;2023-03-21T01:40:25;7.28;;;1.38;;
64915;SDS011;51427;-27.442;153.014;2023-03-21T01:42:53;8.85;;;1.23;;
64915;SDS011;51427;-27.442;153.014;2023-03-21T01:48:24;6.95;;;1.23;;
64915;SDS011;51427;-27.442;153.014;2023-03-21T01:50:54;7.22;;;1.27;;
64915;SDS011;51427;-27.442;153.014;2023-03-21T01:53:23;6.70;;;1.55;;
64915;SDS011;51427;-27.442;153.014;2023-03-21T01:55:58;4.13;;;1.35;;
64915;SDS011;51427;-27.442;153.014;2023-03-21T01:58:33;5.32;;;1.52;;
64915;SDS011;51427;-27.442;153.014;2023-03-21T02:01:02;4.53;;;1.20;;
64915;SDS011;51427;-27.442;153.014;2023-03-21T02:03:29;6.10;;;0.98;;
64915;SDS011;51427;-27.442;153.014;2023-03-21T02:06:10;3.30;;;1.00;;
64915;SDS011;51427;-27.442;153.014;2023-03-21T02:08:40;4.05;;;1.08;;
64915;SDS011;51427;-27.442;153.014;2023-03-21T02:11:07;4.45;;;1.15;;
64915;SDS011;51427;-27.442;153.014;2023-03-21T02:13:35;3.25;;;1.17;;
64915;SDS011;51427;-27.442;153.014;2023-03-21T02:16:11;4.38;;;1.15;;
64915;SDS011;51427;-27.442;153.014;2023-03-21T02:27:09;6.07;;;1.00;;
64915;SDS011;51427;-27.442;153.014;2023-03-21T02:38:08;5.15;;;1.10;;
64915;SDS011;51427;-27.442;153.014;2023-03-21T02:41:08;4.40;;;0.93;;
64915;SDS011;51427;-27.442;153.014;2023-03-21T02:43:46;4.13;;;0.90;;
64915;SDS011;51427;-27.442;153.014;2023-03-21T02:46:24;4.78;;;1.05;;
64915;SDS011;51427;-27.442;153.014;2023-03-21T02:49:21;7.85;;;1.20;;
64915;SDS011;51427;-27.442;153.014;2023-03-21T02:51:49;4.43;;;1.08;;
64915;SDS011;51427;-27.442;153.014;2023-03-21T02:54:19;5.85;;;1.10;;
64915;SDS011;51427;-27.442;153.014;2023-03-21T02:56:50;2.45;;;1.55;;
64915;SDS011;51427;-27.442;153.014;2023-03-21T02:59:20;5.32;;;1.00;;
64915;SDS011;51427;-27.442;153.014;2023-03-21T03:01:50;3.35;;;1.10;;
64915;SDS011;51427;-27.442;153.014;2023-03-21T03:17:45;4.90;;;1.45;;
64915;SDS011;51427;-27.442;153.014;2023-03-21T03:23:12;3.72;;;1.00;;
64915;SDS011;51427;-27.442;153.014;2023-03-21T03:28:39;2.85;;;0.80;;
64915;SDS011;51427;-27.442;153.014;2023-03-21T03:31:10;1.50;;;0.80;;
64915;SDS011;51427;-27.442;153.014;2023-03-21T03:33:43;2.47;;;1.05;;
64915;SDS011;51427;-27.442;153.014;2023-03-21T03:36:16;3.05;;;0.70;;
64915;SDS011;51427;-27.442;153.014;2023-03-21T03:38:47;3.53;;;0.90;;
64915;SDS011;51427;-27.442;153.014;2023-03-21T03:41:24;3.35;;;0.73;;
64915;SDS011;51427;-27.442;153.014;2023-03-21T03:43:56;2.58;;;1.10;;
64915;SDS011;51427;-27.442;153.014;2023-03-21T03:46:31;4.90;;;1.05;;
64915;SDS011;51427;-27.442;153.014;2023-03-21T03:49:24;4.03;;;0.82;;
64915;SDS011;51427;-27.442;153.014;2023-03-21T03:52:07;1.50;;;0.63;;
64915;SDS011;51427;-27.442;153.014;2023-03-21T03:54:42;4.82;;;1.05;;
64915;SDS011;51427;-27.442;153.014;2023-03-21T03:57:12;7.45;;;1.10;;
64915;SDS011;51427;-27.442;153.014;2023-03-21T03:59:42;4.38;;;0.88;;
64915;SDS011;51427;-27.442;153.014;2023-03-21T04:02:11;4.75;;;1.00;;
64915;SDS011;51427;-27.442;153.014;2023-03-21T04:04:39;4.30;;;1.00;;
64915;SDS011;51427;-27.442;153.014;2023-03-21T04:07:07;2.42;;;0.73;;
64915;SDS011;51427;-27.442;153.014;2023-03-21T04:09:35;7.20;;;1.30;;
64915;SDS011;51427;-27.442;153.014;2023-03-21T04:12:02;8.90;;;1.20;;
64915;SDS011;51427;-27.442;153.014;2023-03-21T04:14:30;9.20;;;1.45;;
64915;SDS011;51427;-27.442;153.014;2023-03-21T04:16:58;3.03;;;1.13;;
64915;SDS011;51427;-27.442;153.014;2023-03-21T04:19:25;4.68;;;1.20;;
64915;SDS011;51427;-27.442;153.014;2023-03-21T04:21:53;2.95;;;0.93;;
64915;SDS011;51427;-27.442;153.014;2023-03-21T04:24:21;2.90;;;0.90;;
64915;SDS011;51427;-27.442;153.014;2023-03-21T04:26:48;3.22;;;1.02;;
64915;SDS011;51427;-27.442;153.014;2023-03-21T04:29:18;2.95;;;0.98;;
64915;SDS011;51427;-27.442;153.014;2023-03-21T04:31:46;3.55;;;0.93;;
64915;SDS011;51427;-27.442;153.014;2023-03-21T04:34:14;3.08;;;1.48;;
64915;SDS011;51427;-27.442;153.014;2023-03-21T04:36:42;3.00;;;1.02;;
64915;SDS011;51427;-27.442;153.014;2023-03-21T04:39:11;3.60;;;1.30;;
64915;SDS011;51427;-27.442;153.014;2023-03-21T04:41:39;3.55;;;1.15;;
64915;SDS011;51427;-27.442;153.014;2023-03-21T04:44:08;6.70;;;1.55;;
64915;SDS011;51427;-27.442;153.014;2023-03-21T04:46:37;5.30;;;1.02;;
64915;SDS011;51427;-27.442;153.014;2023-03-21T04:49:06;4.15;;;1.15;;
64915;SDS011;51427;-27.442;153.014;2023-03-21T04:51:34;3.10;;;0.85;;
64915;SDS011;51427;-27.442;153.014;2023-03-21T04:54:02;1.50;;;0.80;;
64915;SDS011;51427;-27.442;153.014;2023-03-21T04:56:33;2.08;;;1.20;;
64915;SDS011;51427;-27.442;153.014;2023-03-21T04:59:03;3.88;;;1.45;;
64915;SDS011;51427;-27.442;153.014;2023-03-21T05:01:36;4.45;;;1.13;;
64915;SDS011;51427;-27.442;153.014;2023-03-21T05:04:06;5.13;;;1.23;;
64915;SDS011;51427;-27.442;153.014;2023-03-21T05:06:33;2.47;;;1.10;;
64915;SDS011;51427;-27.442;153.014;2023-03-21T05:09:02;5.57;;;1.13;;
64915;SDS011;51427;-27.442;153.014;2023-03-21T05:11:32;9.13;;;1.63;;
64915;SDS011;51427;-27.442;153.014;2023-03-21T05:14:03;6.57;;;1.23;;
64915;SDS011;51427;-27.442;153.014;2023-03-21T05:16:37;5.07;;;1.45;;
64915;SDS011;51427;-27.442;153.014;2023-03-21T05:19:10;2.88;;;0.90;;
64915;SDS011;51427;-27.442;153.014;2023-03-21T05:21:39;1.85;;;0.80;;
64915;SDS011;51427;-27.442;153.014;2023-03-21T05:24:07;4.68;;;1.10;;
64915;SDS011;51427;-27.442;153.014;2023-03-21T05:26:37;4.28;;;1.10;;
64915;SDS011;51427;-27.442;153.014;2023-03-21T05:29:06;4.85;;;1.10;;
64915;SDS011;51427;-27.442;153.014;2023-03-21T05:31:34;4.18;;;1.05;;
64915;SDS011;51427;-27.442;153.014;2023-03-21T05:34:02;3.85;;;1.13;;
64915;SDS011;51427;-27.442;153.014;2023-03-21T05:36:30;3.60;;;0.88;;
64915;SDS011;51427;-27.442;153.014;2023-03-21T05:39:00;3.85;;;1.00;;
64915;SDS011;51427;-27.442;153.014;2023-03-21T05:41:29;6.38;;;1.20;;
64915;SDS011;51427;-27.442;153.014;2023-03-21T05:43:56;2.03;;;0.90;;
64915;SDS011;51427;-27.442;153.014;2023-03-21T05:46:25;3.08;;;0.98;;
64915;SDS011;51427;-27.442;153.014;2023-03-21T05:48:53;3.08;;;1.05;;
64915;SDS011;51427;-27.442;153.014;2023-03-21T05:51:21;5.10;;;1.10;;
64915;SDS011;51427;-27.442;153.014;2023-03-21T05:53:48;2.40;;;0.90;;
64915;SDS011;51427;-27.442;153.014;2023-03-21T05:56:16;2.58;;;0.90;;
64915;SDS011;51427;-27.442;153.014;2023-03-21T05:58:44;4.30;;;1.23;;
64915;SDS011;51427;-27.442;153.014;2023-03-21T06:01:12;4.22;;;1.23;;
64915;SDS011;51427;-27.442;153.014;2023-03-21T06:03:40;4.15;;;1.52;;
64915;SDS011;51427;-27.442;153.014;2023-03-21T06:06:08;3.40;;;0.90;;
64915;SDS011;51427;-27.442;153.014;2023-03-21T06:08:36;2.30;;;1.00;;
64915;SDS011;51427;-27.442;153.014;2023-03-21T06:11:03;4.93;;;1.33;;
64915;SDS011;51427;-27.442;153.014;2023-03-21T06:13:33;2.35;;;0.88;;
64915;SDS011;51427;-27.442;153.014;2023-03-21T06:16:01;2.97;;;0.93;;
64915;SDS011;51427;-27.442;153.014;2023-03-21T06:18:28;3.20;;;0.95;;
64915;SDS011;51427;-27.442;153.014;2023-03-21T06:20:56;3.80;;;0.98;;
64915;SDS011;51427;-27.442;153.014;2023-03-21T06:23:23;2.05;;;0.50;;
64915;SDS011;51427;-27.442;153.014;2023-03-21T06:25:51;2.58;;;1.50;;
64915;SDS011;51427;-27.442;153.014;2023-03-21T06:28:19;3.33;;;0.90;;
64915;SDS011;51427;-27.442;153.014;2023-03-21T06:30:47;3.05;;;1.15;;
64915;SDS011;51427;-27.442;153.014;2023-03-21T06:33:14;2.67;;;1.00;;
64915;SDS011;51427;-27.442;153.014;2023-03-21T06:35:42;3.72;;;1.05;;
64915;SDS011;51427;-27.442;153.014;2023-03-21T06:38:10;5.20;;;1.30;;
64915;SDS011;51427;-27.442;153.014;2023-03-21T06:40:37;3.40;;;0.88;;
64915;SDS011;51427;-27.442;153.014;2023-03-21T06:43:05;2.08;;;0.85;;
64915;SDS011;51427;-27.442;153.014;2023-03-21T06:45:33;4.78;;;1.20;;
64915;SDS011;51427;-27.442;153.014;2023-03-21T06:48:00;2.80;;;1.15;;
64915;SDS011;51427;-27.442;153.014;2023-03-21T06:50:28;3.45;;;1.08;;
64915;SDS011;51427;-27.442;153.014;2023-03-21T06:52:56;3.30;;;1.10;;
64915;SDS011;51427;-27.442;153.014;2023-03-21T06:55:24;3.08;;;0.85;;
64915;SDS011;51427;-27.442;153.014;2023-03-21T06:57:54;4.25;;;1.20;;
64915;SDS011;51427;-27.442;153.014;2023-03-21T07:00:22;3.53;;;1.13;;
64915;SDS011;51427;-27.442;153.014;2023-03-21T07:02:50;3.83;;;1.27;;
64915;SDS011;51427;-27.442;153.014;2023-03-21T07:05:18;3.40;;;1.15;;
64915;SDS011;51427;-27.442;153.014;2023-03-21T07:07:46;4.20;;;1.00;;
64915;SDS011;51427;-27.442;153.014;2023-03-21T07:10:13;3.17;;;1.20;;
64915;SDS011;51427;-27.442;153.014;2023-03-21T07:12:42;2.92;;;0.90;;
64915;SDS011;51427;-27.442;153.014;2023-03-21T07:15:09;2.65;;;1.15;;
64915;SDS011;51427;-27.442;153.014;2023-03-21T07:17:37;2.55;;;1.20;;
64915;SDS011;51427;-27.442;153.014;2023-03-21T07:20:05;4.85;;;1.08;;
64915;SDS011;51427;-27.442;153.014;2023-03-21T07:22:34;3.13;;;1.00;;
64915;SDS011;51427;-27.442;153.014;2023-03-21T07:25:02;3.03;;;1.23;;
64915;SDS011;51427;-27.442;153.014;2023-03-21T07:27:30;2.97;;;0.98;;
64915;SDS011;51427;-27.442;153.014;2023-03-21T07:29:58;5.30;;;1.05;;
64915;SDS011;51427;-27.442;153.014;2023-03-21T07:32:33;2.90;;;0.82;;
64915;SDS011;51427;-27.442;153.014;2023-03-21T07:35:02;4.00;;;1.00;;
64915;SDS011;51427;-27.442;153.014;2023-03-21T07:37:31;1.83;;;1.10;;
64915;SDS011;51427;-27.442;153.014;2023-03-21T07:39:59;3.85;;;1.00;;
64915;SDS011;51427;-27.442;153.014;2023-03-21T07:42:27;3.90;;;1.33;;
64915;SDS011;51427;-27.442;153.014;2023-03-21T07:44:57;5.57;;;1.20;;
64915;SDS011;51427;-27.442;153.014;2023-03-21T07:47:24;2.92;;;1.30;;
64915;SDS011;51427;-27.442;153.014;2023-03-21T07:49:54;5.40;;;1.05;;
64915;SDS011;51427;-27.442;153.014;2023-03-21T07:52:21;5.18;;;1.33;;
64915;SDS011;51427;-27.442;153.014;2023-03-21T07:54:50;3.72;;;1.20;;
64915;SDS011;51427;-27.442;153.014;2023-03-21T07:57:20;3.58;;;1.35;;
64915;SDS011;51427;-27.442;153.014;2023-03-21T07:59:48;3.88;;;1.15;;
64915;SDS011;51427;-27.442;153.014;2023-03-21T08:02:16;5.82;;;1.40;;
64915;SDS011;51427;-27.442;153.014;2023-03-21T08:04:44;5.70;;;1.25;;
64915;SDS011;51427;-27.442;153.014;2023-03-21T08:07:11;6.97;;;1.42;;
64915;SDS011;51427;-27.442;153.014;2023-03-21T08:09:39;2.67;;;1.08;;
64915;SDS011;51427;-27.442;153.014;2023-03-21T08:12:08;4.43;;;1.30;;
64915;SDS011;51427;-27.442;153.014;2023-03-21T08:14:36;2.45;;;1.20;;
64915;SDS011;51427;-27.442;153.014;2023-03-21T08:17:04;3.22;;;1.27;;
64915;SDS011;51427;-27.442;153.014;2023-03-21T08:19:34;4.68;;;1.20;;
64915;SDS011;51427;-27.442;153.014;2023-03-21T08:22:02;3.40;;;1.23;;
64915;SDS011;51427;-27.442;153.014;2023-03-21T08:24:31;5.28;;;1.50;;
64915;SDS011;51427;-27.442;153.014;2023-03-21T08:27:00;4.40;;;1.27;;
64915;SDS011;51427;-27.442;153.014;2023-03-21T08:29:27;4.43;;;1.30;;
64915;SDS011;51427;-27.442;153.014;2023-03-21T08:31:55;2.80;;;0.82;;
64915;SDS011;51427;-27.442;153.014;2023-03-21T08:34:23;2.80;;;1.35;;
64915;SDS011;51427;-27.442;153.014;2023-03-21T08:36:51;3.88;;;1.33;;
64915;SDS011;51427;-27.442;153.014;2023-03-21T08:39:19;3.50;;;1.35;;
64915;SDS011;51427;-27.442;153.014;2023-03-21T08:41:49;3.33;;;1.23;;
64915;SDS011;51427;-27.442;153.014;2023-03-21T08:44:17;5.70;;;1.50;;
64915;SDS011;51427;-27.442;153.014;2023-03-21T08:46:44;4.43;;;1.63;;
64915;SDS011;51427;-27.442;153.014;2023-03-21T08:49:12;4.65;;;1.25;;
64915;SDS011;51427;-27.442;153.014;2023-03-21T08:51:40;4.75;;;1.33;;
64915;SDS011;51427;-27.442;153.014;2023-03-21T08:54:20;9.35;;;1.95;;
64915;SDS011;51427;-27.442;153.014;2023-03-21T08:56:48;3.92;;;1.38;;
64915;SDS011;51427;-27.442;153.014;2023-03-21T08:59:16;3.83;;;1.02;;
64915;SDS011;51427;-27.442;153.014;2023-03-21T09:01:43;6.13;;;1.75;;
64915;SDS011;51427;-27.442;153.014;2023-03-21T09:04:11;6.65;;;1.50;;
64915;SDS011;51427;-27.442;153.014;2023-03-21T09:06:39;2.60;;;1.25;;
64915;SDS011;51427;-27.442;153.014;2023-03-21T09:09:10;5.80;;;1.40;;
64915;SDS011;51427;-27.442;153.014;2023-03-21T09:11:38;1.92;;;1.25;;
64915;SDS011;51427;-27.442;153.014;2023-03-21T09:14:07;7.65;;;1.55;;
64915;SDS011;51427;-27.442;153.014;2023-03-21T09:16:36;6.10;;;1.30;;
64915;SDS011;51427;-27.442;153.014;2023-03-21T09:19:04;3.35;;;1.30;;
64915;SDS011;51427;-27.442;153.014;2023-03-21T09:21:33;5.18;;;1.30;;
64915;SDS011;51427;-27.442;153.014;2023-03-21T09:24:03;3.25;;;1.10;;
64915;SDS011;51427;-27.442;153.014;2023-03-21T09:26:31;9.65;;;1.83;;
64915;SDS011;51427;-27.442;153.014;2023-03-21T09:28:59;4.82;;;1.10;;
64915;SDS011;51427;-27.442;153.014;2023-03-21T09:31:29;5.00;;;1.20;;
64915;SDS011;51427;-27.442;153.014;2023-03-21T09:33:57;5.45;;;1.33;;
64915;SDS011;51427;-27.442;153.014;2023-03-21T09:36:25;2.78;;;1.30;;
64915;SDS011;51427;-27.442;153.014;2023-03-21T09:38:57;5.05;;;1.67;;
64915;SDS011;51427;-27.442;153.014;2023-03-21T09:52:57;4.10;;;1.20;;
64915;SDS011;51427;-27.442;153.014;2023-03-21T09:55:37;2.90;;;1.00;;
64915;SDS011;51427;-27.442;153.014;2023-03-21T10:00:48;4.90;;;1.63;;
64915;SDS011;51427;-27.442;153.014;2023-03-21T10:03:47;3.42;;;1.30;;
64915;SDS011;51427;-27.442;153.014;2023-03-21T10:06:15;5.25;;;1.40;;
64915;SDS011;51427;-27.442;153.014;2023-03-21T10:08:44;7.85;;;1.60;;
64915;SDS011;51427;-27.442;153.014;2023-03-21T10:11:30;3.47;;;1.38;;
64915;SDS011;51427;-27.442;153.014;2023-03-21T10:14:12;4.50;;;1.42;;
64915;SDS011;51427;-27.442;153.014;2023-03-21T10:19:26;3.67;;;1.35;;
64915;SDS011;51427;-27.442;153.014;2023-03-21T10:21:55;4.20;;;1.35;;
64915;SDS011;51427;-27.442;153.014;2023-03-21T10:24:24;5.03;;;1.55;;
64915;SDS011;51427;-27.442;153.014;2023-03-21T10:26:53;4.00;;;1.38;;
64915;SDS011;51427;-27.442;153.014;2023-03-21T10:29:24;4.32;;;1.20;;
64915;SDS011;51427;-27.442;153.014;2023-03-21T10:31:54;4.68;;;1.73;;
64915;SDS011;51427;-27.442;153.014;2023-03-21T10:37:03;4.80;;;1.52;;
64915;SDS011;51427;-27.442;153.014;2023-03-21T10:42:11;5.25;;;1.55;;
64915;SDS011;51427;-27.442;153.014;2023-03-21T10:44:47;6.45;;;1.48;;
64915;SDS011;51427;-27.442;153.014;2023-03-21T10:47:20;3.65;;;1.13;;
64915;SDS011;51427;-27.442;153.014;2023-03-21T10:49:53;3.10;;;1.35;;
64915;SDS011;51427;-27.442;153.014;2023-03-21T10:52:22;5.28;;;1.63;;
64915;SDS011;51427;-27.442;153.014;2023-03-21T10:55:03;4.60;;;1.35;;
64915;SDS011;51427;-27.442;153.014;2023-03-21T10:57:42;9.02;;;1.70;;
64915;SDS011;51427;-27.442;153.014;2023-03-21T11:00:21;3.75;;;1.27;;
64915;SDS011;51427;-27.442;153.014;2023-03-21T11:02:53;3.22;;;1.50;;
64915;SDS011;51427;-27.442;153.014;2023-03-21T11:05:26;8.02;;;1.90;;
64915;SDS011;51427;-27.442;153.014;2023-03-21T11:08:10;5.05;;;1.80;;
64915;SDS011;51427;-27.442;153.014;2023-03-21T11:11:18;4.47;;;1.92;;
64915;SDS011;51427;-27.442;153.014;2023-03-21T11:16:06;5.95;;;1.75;;
64915;SDS011;51427;-27.442;153.014;2023-03-21T11:18:48;6.13;;;1.70;;
64915;SDS011;51427;-27.442;153.014;2023-03-21T11:21:17;6.93;;;1.48;;
64915;SDS011;51427;-27.442;153.014;2023-03-21T11:23:47;5.65;;;1.55;;
64915;SDS011;51427;-27.442;153.014;2023-03-21T11:26:18;3.67;;;1.50;;
64915;SDS011;51427;-27.442;153.014;2023-03-21T11:32:52;5.18;;;1.50;;
64915;SDS011;51427;-27.442;153.014;2023-03-21T11:35:22;7.10;;;1.52;;
64915;SDS011;51427;-27.442;153.014;2023-03-21T11:37:54;4.75;;;1.73;;
64915;SDS011;51427;-27.442;153.014;2023-03-21T11:40:29;5.88;;;1.95;;
64915;SDS011;51427;-27.442;153.014;2023-03-21T11:43:25;3.58;;;1.42;;
64915;SDS011;51427;-27.442;153.014;2023-03-21T11:48:26;4.70;;;1.65;;
64915;SDS011;51427;-27.442;153.014;2023-03-21T11:51:04;4.10;;;1.88;;
64915;SDS011;51427;-27.442;153.014;2023-03-21T11:53:48;5.53;;;1.60;;
64915;SDS011;51427;-27.442;153.014;2023-03-21T11:56:51;6.20;;;1.58;;
64915;SDS011;51427;-27.442;153.014;2023-03-21T11:59:25;5.50;;;1.83;;
64915;SDS011;51427;-27.442;153.014;2023-03-21T12:25:00;6.10;;;2.50;;
64915;SDS011;51427;-27.442;153.014;2023-03-21T12:27:57;5.30;;;2.25;;
64915;SDS011;51427;-27.442;153.014;2023-03-21T12:30:43;5.22;;;2.55;;
64915;SDS011;51427;-27.442;153.014;2023-03-21T12:44:42;5.20;;;2.00;;
64915;SDS011;51427;-27.442;153.014;2023-03-21T12:47:27;4.25;;;1.85;;
64915;SDS011;51427;-27.442;153.014;2023-03-21T12:52:53;3.95;;;1.92;;
64915;SDS011;51427;-27.442;153.014;2023-03-21T12:55:29;3.70;;;2.13;;
64915;SDS011;51427;-27.442;153.014;2023-03-21T12:58:09;6.15;;;1.90;;
64915;SDS011;51427;-27.442;153.014;2023-03-21T13:00:52;3.58;;;1.90;;
64915;SDS011;51427;-27.442;153.014;2023-03-21T13:03:28;5.22;;;2.08;;
64915;SDS011;51427;-27.442;153.014;2023-03-21T13:06:04;3.83;;;1.80;;
64915;SDS011;51427;-27.442;153.014;2023-03-21T13:11:02;2.75;;;1.52;;
64915;SDS011;51427;-27.442;153.014;2023-03-21T13:19:09;4.43;;;1.83;;
64915;SDS011;51427;-27.442;153.014;2023-03-21T13:22:04;3.67;;;1.53;;
64915;SDS011;51427;-27.442;153.014;2023-03-21T13:27:13;3.75;;;1.88;;
64915;SDS011;51427;-27.442;153.014;2023-03-21T13:29:59;4.18;;;1.50;;
64915;SDS011;51427;-27.442;153.014;2023-03-21T13:32:37;4.07;;;1.50;;
64915;SDS011;51427;-27.442;153.014;2023-03-21T13:37:56;3.53;;;1.70;;
64915;SDS011;51427;-27.442;153.014;2023-03-21T13:40:28;4.53;;;1.73;;
64915;SDS011;51427;-27.442;153.014;2023-03-21T13:43:03;1.83;;;1.65;;
64915;SDS011;51427;-27.442;153.014;2023-03-21T13:45:32;4.35;;;1.88;;
64915;SDS011;51427;-27.442;153.014;2023-03-21T13:59:34;6.32;;;1.80;;
64915;SDS011;51427;-27.442;153.014;2023-03-21T14:04:52;3.75;;;1.90;;
64915;SDS011;51427;-27.442;153.014;2023-03-21T14:07:26;2.78;;;1.65;;
64915;SDS011;51427;-27.442;153.014;2023-03-21T14:09:59;2.78;;;1.83;;
64915;SDS011;51427;-27.442;153.014;2023-03-21T14:12:40;4.07;;;1.95;;
64915;SDS011;51427;-27.442;153.014;2023-03-21T14:17:47;4.70;;;2.03;;
64915;SDS011;51427;-27.442;153.014;2023-03-21T14:20:24;2.35;;;2.08;;
64915;SDS011;51427;-27.442;153.014;2023-03-21T14:22:57;3.92;;;2.10;;
64915;SDS011;51427;-27.442;153.014;2023-03-21T14:25:31;4.18;;;2.15;;
64915;SDS011;51427;-27.442;153.014;2023-03-21T14:28:02;3.22;;;1.88;;
64915;SDS011;51427;-27.442;153.014;2023-03-21T14:30:32;1.98;;;1.48;;
64915;SDS011;51427;-27.442;153.014;2023-03-21T14:33:12;5.13;;;1.92;;
64915;SDS011;51427;-27.442;153.014;2023-03-21T14:35:44;3.63;;;1.90;;
64915;SDS011;51427;-27.442;153.014;2023-03-21T14:38:23;2.15;;;1.50;;
64915;SDS011;51427;-27.442;153.014;2023-03-21T14:40:53;2.85;;;1.88;;
64915;SDS011;51427;-27.442;153.014;2023-03-21T14:43:23;3.45;;;1.70;;
64915;SDS011;51427;-27.442;153.014;2023-03-21T14:45:52;1.55;;;1.13;;
64915;SDS011;51427;-27.442;153.014;2023-03-21T14:48:32;3.35;;;1.90;;
64915;SDS011;51427;-27.442;153.014;2023-03-21T14:51:01;3.42;;;1.50;;
64915;SDS011;51427;-27.442;153.014;2023-03-21T14:53:37;2.45;;;1.15;;
64915;SDS011;51427;-27.442;153.014;2023-03-21T14:56:08;2.20;;;1.40;;
64915;SDS011;51427;-27.442;153.014;2023-03-21T14:58:43;1.15;;;1.10;;
64915;SDS011;51427;-27.442;153.014;2023-03-21T15:01:16;1.55;;;1.15;;
64915;SDS011;51427;-27.442;153.014;2023-03-21T15:03:58;2.42;;;1.13;;
64915;SDS011;51427;-27.442;153.014;2023-03-21T15:06:29;2.25;;;1.30;;
64915;SDS011;51427;-27.442;153.014;2023-03-21T15:08:57;1.63;;;1.30;;
64915;SDS011;51427;-27.442;153.014;2023-03-21T15:11:38;3.60;;;1.48;;
64915;SDS011;51427;-27.442;153.014;2023-03-21T15:14:08;2.13;;;1.80;;
64915;SDS011;51427;-27.442;153.014;2023-03-21T15:16:38;2.85;;;1.60;;
64915;SDS011;51427;-27.442;153.014;2023-03-21T15:19:06;2.10;;;1.35;;
64915;SDS011;51427;-27.442;153.014;2023-03-21T15:21:42;2.10;;;1.20;;
64915;SDS011;51427;-27.442;153.014;2023-03-21T15:24:37;3.67;;;1.42;;
64915;SDS011;51427;-27.442;153.014;2023-03-21T15:27:06;2.72;;;1.52;;
64915;SDS011;51427;-27.442;153.014;2023-03-21T15:29:44;3.03;;;1.80;;
64915;SDS011;51427;-27.442;153.014;2023-03-21T15:32:13;2.30;;;1.23;;
64915;SDS011;51427;-27.442;153.014;2023-03-21T15:34:47;2.85;;;1.52;;
64915;SDS011;51427;-27.442;153.014;2023-03-21T15:37:16;1.75;;;1.17;;
64915;SDS011;51427;-27.442;153.014;2023-03-21T15:39:48;3.25;;;1.20;;
64915;SDS011;51427;-27.442;153.014;2023-03-21T15:44:56;1.48;;;1.10;;
64915;SDS011;51427;-27.442;153.014;2023-03-21T15:47:37;2.92;;;1.25;;
64915;SDS011;51427;-27.442;153.014;2023-03-21T15:50:15;3.35;;;1.25;;
64915;SDS011;51427;-27.442;153.014;2023-03-21T15:52:52;2.05;;;1.33;;
64915;SDS011;51427;-27.442;153.014;2023-03-21T15:55:26;2.30;;;1.20;;
64915;SDS011;51427;-27.442;153.014;2023-03-21T15:58:02;2.35;;;1.30;;
64915;SDS011;51427;-27.442;153.014;2023-03-21T16:00:38;3.85;;;1.52;;
64915;SDS011;51427;-27.442;153.014;2023-03-21T16:03:14;2.28;;;1.10;;
64915;SDS011;51427;-27.442;153.014;2023-03-21T16:08:51;1.85;;;1.05;;
64915;SDS011;51427;-27.442;153.014;2023-03-21T16:11:28;3.40;;;1.48;;
64915;SDS011;51427;-27.442;153.014;2023-03-21T16:14:04;2.70;;;1.08;;
64915;SDS011;51427;-27.442;153.014;2023-03-21T16:16:31;1.33;;;0.93;;
64915;SDS011;51427;-27.442;153.014;2023-03-21T16:18:59;1.58;;;1.30;;
64915;SDS011;51427;-27.442;153.014;2023-03-21T16:21:28;2.17;;;1.13;;
64915;SDS011;51427;-27.442;153.014;2023-03-21T16:23:58;2.75;;;1.10;;
64915;SDS011;51427;-27.442;153.014;2023-03-21T16:26:28;3.22;;;0.98;;
64915;SDS011;51427;-27.442;153.014;2023-03-21T16:28:57;1.20;;;1.10;;
64915;SDS011;51427;-27.442;153.014;2023-03-21T16:31:26;1.38;;;0.93;;
64915;SDS011;51427;-27.442;153.014;2023-03-21T16:33:54;1.23;;;0.82;;
64915;SDS011;51427;-27.442;153.014;2023-03-21T16:36:25;1.23;;;0.73;;
64915;SDS011;51427;-27.442;153.014;2023-03-21T16:38:58;1.08;;;0.70;;
64915;SDS011;51427;-27.442;153.014;2023-03-21T16:41:26;1.65;;;0.70;;
64915;SDS011;51427;-27.442;153.014;2023-03-21T16:43:53;3.65;;;0.60;;
64915;SDS011;51427;-27.442;153.014;2023-03-21T16:46:23;0.73;;;0.40;;
64915;SDS011;51427;-27.442;153.014;2023-03-21T16:48:52;0.60;;;0.60;;
64915;SDS011;51427;-27.442;153.014;2023-03-21T16:51:22;3.17;;;0.70;;
64915;SDS011;51427;-27.442;153.014;2023-03-21T16:53:54;1.10;;;0.52;;
64915;SDS011;51427;-27.442;153.014;2023-03-21T16:56:28;1.55;;;0.52;;